Capitol Logistics 234


KMIA
Miami International Airport
Miami, Florida, US
KPHX
Phoenix Sky Harbor International Airport
Phoenix, Arizona, US

Activity Log

Date Flight Route Aircraft Duration
01/30/2020 CPX234 WINCO2 WINCO CHRRI DOLIE Y280 reden pekon cll lowgo ewm DRRVR PINNG1 B763 5h 12m
01/20/2019 CPX234 WINCO2 WINCO J73 LBV SRQ Q100 LEV J86 ELP DRRVR PINNG1 B763 4h 30m

Route Details

Aircraft Information
Primary: Boeing 767-300BDSF
Backup: Not Available
Route Data
Distance: 1723nm
Sched. Duration: 5h 29m
Avg. Duration: 4h 71m (-58m)
Times Flown: 2
Recm'd Route: WINCO2 WINCO CHRRI DOLIE Y280 LEV J86 ELP DRRVR PINNG1
Planned Altitude: 32,000ft
Origin Wx: KMIA 311353Z 19009KT 10SM SCT023 BKN250 27/21 A2995 RMK AO2 SLP143 T02720206
Dest. Wx: KPHX 311351Z 11004KT 10SM BKN220 BKN250 14/04 A3005 RMK AO2 SLP168 T01390044
Notes:

Financial History
Total Freight: 149,965lbs
Average Load: 74,983lbs/flt
Fuel Used: 114,683lbs
Avg. Fuel Used: 57,342lbs/flt
Fuel Expense: $141,060
Avg. Fuel Expense: $70,530
Avg. Fuel Cost: $1.23/lbs
Total Gross Income: $213,591
Pilot Pay: $218
Total Expenses: $23,172
Total Revenue: $47,763
Average Revenue: $106,795.45